Time;durP1;ratioP1;P1;durP2;ratioP2;P2;SDS_P1;SDS_P2;PMS_P1;PMS_P2;Temp;Humidity;BMP_temperature;BMP_pressure;BME280_temperature;BME280_humidity;BME280_pressure;Samples;Min_cycle;Max_cycle;Signal;HPM_P1;HPM_P2
2021/12/28 00:01:13;;;;;;;4.80;4.20;;;;;;;2.03;85.00;96703.33;107991;1269;68752;-66
2021/12/28 00:03:44;;;;;;;5.10;4.40;;;;;;;1.99;85.02;96702.27;108305;1271;58958;-67
2021/12/28 00:06:15;;;;;;;5.00;4.20;;;;;;;1.94;85.12;96704.43;108280;1269;58917;-66
2021/12/28 00:08:45;;;;;;;5.00;4.20;;;;;;;1.92;85.21;96707.31;108318;1269;70782;-67
2021/12/28 00:11:14;;;;;;;;;;;;;;;1.90;85.09;96709.15;108364;1270;67983;-66
2021/12/28 00:13:44;;;;;;;4.40;4.00;;;;;;;1.88;84.93;96713.54;108261;1269;69553;-67
2021/12/28 00:18:42;;;;;;;4.10;3.70;;;;;;;1.80;85.04;96717.86;108375;1269;58863;-66
2021/12/28 00:21:11;;;;;;;4.10;3.60;;;;;;;1.78;85.01;96715.00;108149;1272;70308;-67
2021/12/28 00:23:41;;;;;;;3.90;3.20;;;;;;;1.75;85.11;96717.05;108120;1272;68211;-67
2021/12/28 00:26:11;;;;;;;;;;;;;;;1.72;85.03;96720.45;108111;1271;68817;-65
2021/12/28 00:28:42;;;;;;;4.40;3.90;;;;;;;1.69;85.16;96725.27;108263;1269;58894;-66
2021/12/28 00:31:15;;;;;;;4.10;3.70;;;;;;;1.67;85.34;96727.92;108313;1269;58916;-66
2021/12/28 00:33:45;;;;;;;4.00;3.50;;;;;;;1.68;85.17;96729.61;108289;1269;69965;-66
2021/12/28 00:36:15;;;;;;;4.00;3.60;;;;;;;1.67;85.26;96729.49;108354;1268;69295;-67
2021/12/28 00:38:45;;;;;;;3.30;3.00;;;;;;;1.66;85.39;96733.64;108043;1269;68601;-65
2021/12/28 00:41:15;;;;;;;3.00;2.70;;;;;;;1.66;85.26;96737.27;108096;1269;58910;-67
2021/12/28 00:43:45;;;;;;;4.20;3.40;;;;;;;1.65;85.40;96727.69;108045;1269;58882;-65
2021/12/28 00:46:15;;;;;;;3.80;3.20;;;;;;;1.63;85.47;96726.05;107974;1271;70010;-66
2021/12/28 00:48:44;;;;;;;3.50;3.20;;;;;;;1.64;85.48;96729.98;107919;1269;68250;-66
2021/12/28 00:51:14;;;;;;;3.80;3.40;;;;;;;1.65;85.42;96728.57;108046;1270;69278;-66
2021/12/28 00:53:44;;;;;;;3.40;3.10;;;;;;;1.66;85.39;96731.27;108113;1269;58932;-66
2021/12/28 00:56:13;;;;;;;4.40;3.20;;;;;;;1.66;85.29;96732.98;108095;1271;58906;-67
2021/12/28 00:58:43;;;;;;;3.20;2.90;;;;;;;1.67;85.29;96730.86;108023;1268;70585;-66
2021/12/28 01:01:13;;;;;;;4.10;3.50;;;;;;;1.68;85.33;96731.68;108006;1271;68490;-66
2021/12/28 01:03:43;;;;;;;3.30;2.80;;;;;;;1.69;85.33;96731.82;106822;1269;69503;-65
2021/12/28 01:06:13;;;;;;;3.70;3.30;;;;;;;1.70;85.30;96733.43;108067;1269;58898;-66
2021/12/28 01:08:43;;;;;;;3.30;2.90;;;;;;;1.69;85.26;96735.02;108080;1269;58899;-65
2021/12/28 01:11:12;;;;;;;2.50;2.30;;;;;;;1.69;85.31;96734.52;108033;1269;70829;-66
2021/12/28 01:13:42;;;;;;;4.00;3.60;;;;;;;1.69;85.25;96734.02;108055;1269;68321;-65
2021/12/28 01:16:13;;;;;;;3.30;3.00;;;;;;;1.67;85.24;96736.53;108039;1269;69392;-65
2021/12/28 01:18:43;;;;;;;3.00;2.70;;;;;;;1.68;85.22;96739.60;108029;1271;58940;-66
2021/12/28 01:21:14;;;;;;;2.50;2.30;;;;;;;1.68;85.17;96737.35;108145;1269;58846;-65
2021/12/28 01:23:43;;;;;;;2.70;2.50;;;;;;;1.68;85.09;96738.36;107978;1271;70014;-65
2021/12/28 01:26:13;;;;;;;4.80;4.00;;;;;;;1.69;84.98;96740.05;107994;1271;67848;-65
2021/12/28 01:28:43;;;;;;;3.00;2.70;;;;;;;1.67;85.09;96737.70;108143;1269;68449;-66
2021/12/28 01:31:13;;;;;;;4.80;3.90;;;;;;;1.67;85.10;96737.72;108078;1269;58950;-66
2021/12/28 01:33:43;;;;;;;3.30;2.60;;;;;;;1.65;85.27;96733.70;108126;1269;58906;-65
2021/12/28 01:36:13;;;;;;;4.30;3.90;;;;;;;1.66;85.20;96735.89;108074;1269;69768;-65
2021/12/28 01:38:43;;;;;;;3.20;2.90;;;;;;;1.64;85.09;96740.45;108076;1271;67677;-65
2021/12/28 01:41:13;;;;;;;3.50;3.20;;;;;;;1.64;85.14;96741.64;108042;1271;68451;-66
2021/12/28 01:43:43;;;;;;;3.10;2.80;;;;;;;1.65;85.09;96739.70;108208;1268;58973;-65
2021/12/28 01:46:13;;;;;;;;;;;;;;;1.65;84.97;96740.72;108069;1269;59336;-65
2021/12/28 01:48:43;;;;;;;3.30;2.70;;;;;;;1.65;84.98;96738.16;108059;1271;70708;-65
2021/12/28 01:51:18;;;;;;;2.80;2.20;;;;;;;1.67;85.07;96738.95;108030;1270;67853;-65
2021/12/28 01:53:52;;;;;;;4.10;3.50;;;;;;;1.67;85.11;96737.38;108114;1269;70605;-65
2021/12/28 01:56:29;;;;;;;3.30;3.00;;;;;;;1.66;85.00;96737.77;108111;1271;59336;-65
2021/12/28 01:58:59;;;;;;;3.40;2.80;;;;;;;1.67;84.93;96738.27;107939;1272;58998;-65
2021/12/28 02:01:29;;;;;;;2.70;2.30;;;;;;;1.68;84.96;96740.60;108078;1269;70657;-66
2021/12/28 02:04:01;;;;;;;2.20;2.00;;;;;;;1.69;84.87;96743.11;108047;1269;67914;-65
2021/12/28 02:06:31;;;;;;;2.90;2.30;;;;;;;1.70;84.87;96747.02;108171;1271;68627;-66
2021/12/28 02:09:03;;;;;;;3.80;3.40;;;;;;;1.71;84.88;96753.67;108007;1269;58909;-66
2021/12/28 02:11:32;;;;;;;2.40;2.20;;;;;;;1.70;84.82;96750.63;108288;1269;58931;-67
2021/12/28 02:14:05;;;;;;;2.80;2.40;;;;;;;1.70;84.83;96748.23;108476;1268;69985;-66
2021/12/28 02:16:41;;;;;;;2.90;2.60;;;;;;;1.70;84.77;96751.84;108318;1269;68643;-66
2021/12/28 02:19:13;;;;;;;2.70;2.50;;;;;;;1.70;84.82;96750.63;108407;1269;68529;-66
2021/12/28 02:21:43;;;;;;;4.10;3.20;;;;;;;1.69;84.81;96754.31;108277;1271;58929;-66
2021/12/28 02:24:12;;;;;;;3.80;3.30;;;;;;;1.67;84.84;96752.00;108295;1269;59317;-66
2021/12/28 02:26:42;;;;;;;3.60;3.30;;;;;;;1.67;84.79;96751.31;108328;1269;70759;-66
2021/12/28 02:29:12;;;;;;;3.80;2.80;;;;;;;1.66;84.76;96756.14;108296;1268;67862;-66
2021/12/28 02:31:42;;;;;;;3.50;2.90;;;;;;;1.65;84.73;96752.40;108156;1272;69468;-66
2021/12/28 02:34:12;;;;;;;5.20;4.00;;;;;;;1.65;84.72;96753.25;108253;1272;58890;-67
2021/12/28 02:36:42;;;;;;;;;;;;;;;1.64;84.69;96752.64;108309;1271;59396;-66
2021/12/28 02:39:11;;;;;;;3.40;3.00;;;;;;;1.61;84.74;96750.53;108166;1271;70003;-67
2021/12/28 02:41:41;;;;;;;4.20;3.60;;;;;;;1.61;84.70;96752.42;108042;1271;67662;-66
2021/12/28 02:44:11;;;;;;;4.30;3.60;;;;;;;1.61;84.71;96751.94;108266;1271;68458;-66
2021/12/28 02:46:44;;;;;;;4.80;3.50;;;;;;;1.60;84.71;96750.95;108229;1271;58969;-67
2021/12/28 02:49:15;;;;;;;4.50;3.80;;;;;;;1.59;84.46;96751.89;108354;1268;58893;-66
2021/12/28 02:51:45;;;;;;;3.10;2.80;;;;;;;1.56;84.48;96751.82;108239;1268;69965;-67
2021/12/28 02:54:15;;;;;;;3.90;3.50;;;;;;;1.54;84.49;96753.63;108054;1271;68608;-67
2021/12/28 02:56:45;;;;;;;;;;;;;;;1.52;84.57;96750.77;108292;1269;68614;-66
2021/12/28 02:59:15;;;;;;;3.60;3.30;;;;;;;1.51;84.49;96749.63;108255;1269;59719;-66
2021/12/28 03:01:45;;;;;;;;;;;;;;;1.49;84.53;96752.13;108272;1269;59737;-66
2021/12/28 03:04:15;;;;;;;3.60;3.10;;;;;;;1.46;84.40;96750.04;108278;1271;70364;-66
2021/12/28 03:06:44;;;;;;;4.00;3.50;;;;;;;1.44;84.52;96746.41;108214;1269;67834;-66
2021/12/28 03:09:15;;;;;;;4.40;3.30;;;;;;;1.42;84.49;96748.68;108035;1271;69213;-66
2021/12/28 03:11:45;;;;;;;3.20;2.70;;;;;;;1.39;84.53;96751.77;108318;1269;59681;-66
2021/12/28 03:14:16;;;;;;;3.40;3.10;;;;;;;1.38;84.51;96756.28;108305;1269;59677;-66
2021/12/28 03:16:46;;;;;;;3.80;3.30;;;;;;;1.35;84.50;96756.92;108293;1269;71636;-66
2021/12/28 03:19:16;;;;;;;3.60;3.20;;;;;;;1.34;84.53;96755.25;108216;1269;68529;-66
2021/12/28 03:21:47;;;;;;;4.40;3.60;;;;;;;1.33;84.53;96760.27;108117;1268;68024;-66
2021/12/28 03:24:18;;;;;;;4.20;3.80;;;;;;;1.33;84.55;96758.71;108082;1271;59705;-66
2021/12/28 03:26:48;;;;;;;3.70;3.30;;;;;;;1.32;84.63;96758.80;108101;1271;59740;-66
2021/12/28 03:29:19;;;;;;;3.70;3.10;;;;;;;1.29;84.64;96754.97;108173;1271;70788;-66
2021/12/28 03:31:50;;;;;;;3.70;3.40;;;;;;;1.28;84.64;96754.84;108297;1269;68714;-66
2021/12/28 03:34:21;;;;;;;3.60;2.80;;;;;;;1.28;84.59;96754.33;108316;1272;68779;-66
2021/12/28 03:36:51;;;;;;;3.70;3.30;;;;;;;1.28;84.68;96756.39;108282;1269;59757;-65
2021/12/28 03:39:21;;;;;;;3.30;3.00;;;;;;;1.28;84.66;96757.77;108114;1271;59761;-66
2021/12/28 03:41:50;;;;;;;4.30;3.60;;;;;;;1.27;84.57;96757.11;108015;1271;71537;-66
2021/12/28 03:44:20;;;;;;;3.90;3.50;;;;;;;1.27;84.68;96759.20;108091;1271;68649;-66
2021/12/28 03:46:50;;;;;;;3.80;2.80;;;;;;;1.26;84.63;96761.79;108379;1269;69272;-66
2021/12/28 03:49:20;;;;;;;5.80;5.20;;;;;;;1.26;84.56;96762.86;108301;1272;59742;-66
2021/12/28 03:51:50;;;;;;;4.80;3.80;;;;;;;1.21;84.68;96761.86;108135;1271;60173;-66
2021/12/28 03:54:19;;;;;;;4.30;3.90;;;;;;;1.18;84.77;96763.89;108363;1269;70764;-66
2021/12/28 03:56:49;;;;;;;6.60;5.00;;;;;;;1.15;84.71;96763.67;108293;1269;67635;-66
2021/12/28 03:59:18;;;;;;;4.80;4.30;;;;;;;1.13;85.10;96769.45;108116;1269;68131;-66
2021/12/28 04:01:48;;;;;;;5.30;4.70;;;;;;;1.09;85.22;96772.21;108250;1269;59774;-66
2021/12/28 04:04:18;;;;;;;6.30;5.30;;;;;;;1.05;85.39;96771.54;108051;1273;59729;-66
2021/12/28 04:06:47;;;;;;;5.00;4.50;;;;;;;1.02;85.51;96771.83;108180;1271;69658;-66
2021/12/28 04:09:34;;;;;;;4.10;3.70;;;;;;;1.01;85.49;96772.73;108230;1272;67786;-68
2021/12/28 04:12:04;;;;;;;4.30;3.70;;;;;;;1.03;85.30;96771.77;107995;1271;69317;-67
2021/12/28 04:14:34;;;;;;;3.60;3.30;;;;;;;1.05;85.31;96770.14;108074;1271;59709;-66
2021/12/28 04:17:04;;;;;;;4.80;3.50;;;;;;;1.08;85.24;96769.52;108144;1272;59643;-68
2021/12/28 04:19:34;;;;;;;4.20;3.80;;;;;;;1.10;85.29;96770.08;108057;1272;70598;-68
2021/12/28 04:22:03;;;;;;;5.00;4.50;;;;;;;1.13;85.24;96768.07;108100;1272;68164;-67
2021/12/28 04:24:34;;;;;;;5.20;4.40;;;;;;;1.14;85.26;96768.16;108145;1272;69416;-67
2021/12/28 04:27:23;;;;;;;5.60;4.80;;;;;;;1.16;85.28;96772.06;108256;1269;59690;-66
2021/12/28 04:29:52;;;;;;;5.80;5.20;;;;;;;1.17;85.23;96769.77;108207;1269;59730;-68
2021/12/28 04:32:21;;;;;;;4.10;3.70;;;;;;;1.18;85.20;96769.02;108179;1271;71413;-67
2021/12/28 04:34:52;;;;;;;6.30;5.70;;;;;;;1.19;85.08;96767.09;108146;1272;68933;-67
2021/12/28 04:37:24;;;;;;;5.50;4.90;;;;;;;1.18;85.24;96768.34;108064;1271;68414;-66
2021/12/28 04:39:53;;;;;;;4.80;4.40;;;;;;;1.18;85.16;96769.05;108194;1272;60004;-66
2021/12/28 04:42:25;;;;;;;5.60;4.60;;;;;;;1.19;85.18;96773.11;108265;1269;59669;-66
2021/12/28 04:44:55;;;;;;;6.80;5.50;;;;;;;1.19;85.19;96772.79;107996;1272;71486;-69
2021/12/28 04:47:25;;;;;;;5.50;4.90;;;;;;;1.17;85.11;96776.79;108039;1272;68700;-67
2021/12/28 04:49:55;;;;;;;5.70;5.00;;;;;;;1.16;85.14;96776.00;107924;1271;69408;-66
2021/12/28 04:52:29;;;;;;;5.20;4.30;;;;;;;1.16;85.26;96777.02;108249;1269;60170;-67
2021/12/28 04:54:59;;;;;;;5.70;5.10;;;;;;;1.17;85.09;96779.22;108128;1270;59707;-67
2021/12/28 04:57:28;;;;;;;4.00;3.60;;;;;;;1.18;85.09;96780.88;108101;1272;71445;-68
2021/12/28 04:59:58;;;;;;;4.80;4.30;;;;;;;1.19;85.01;96781.19;108060;1271;67138;-67
2021/12/28 05:02:30;;;;;;;4.40;3.60;;;;;;;1.17;84.89;96782.64;108212;1269;68764;-67
2021/12/28 05:05:00;;;;;;;7.80;6.40;;;;;;;1.16;84.90;96784.05;108350;1269;59806;-66
2021/12/28 05:07:30;;;;;;;5.60;5.00;;;;;;;1.13;84.74;96786.10;108288;1269;59692;-66
2021/12/28 05:09:59;;;;;;;5.60;4.80;;;;;;;1.10;85.01;96783.80;108267;1271;71536;-68
2021/12/28 05:12:29;;;;;;;6.60;5.80;;;;;;;1.10;85.07;96785.73;108234;1265;68026;-67
2021/12/28 05:15:00;;;;;;;6.90;6.30;;;;;;;1.08;85.33;96782.73;108087;1271;68686;-67
2021/12/28 05:17:29;;;;;;;;;;;;;;;1.04;85.69;96783.57;108179;1271;59740;-68
2021/12/28 05:19:59;;;;;;;5.30;4.40;;;;;;;1.04;85.60;96781.84;108111;1269;59662;-66
2021/12/28 05:22:29;;;;;;;4.70;4.20;;;;;;;1.06;85.54;96786.39;107878;1271;70848;-67
2021/12/28 05:24:59;;;;;;;4.50;3.60;;;;;;;1.09;85.40;96789.21;108156;1271;68802;-67
2021/12/28 05:27:29;;;;;;;7.40;5.30;;;;;;;1.11;85.27;96788.58;107876;1272;69322;-65
2021/12/28 05:29:58;;;;;;;6.00;5.10;;;;;;;1.12;85.29;96789.90;108155;1269;59735;-65
2021/12/28 05:32:28;;;;;;;10.90;8.10;;;;;;;1.13;85.25;96788.34;108178;1269;59678;-66
2021/12/28 05:34:58;;;;;;;12.80;9.80;;;;;;;1.12;85.29;96788.55;107991;1271;71572;-65
2021/12/28 05:37:27;;;;;;;12.60;8.30;;;;;;;1.11;85.23;96786.17;107909;1272;67608;-67
2021/12/28 05:39:57;;;;;;;12.00;9.00;;;;;;;1.09;85.27;96786.27;107964;1270;69449;-64
2021/12/28 05:42:26;;;;;;;13.60;9.40;;;;;;;1.09;85.23;96788.35;107969;1271;59704;-65
2021/12/28 05:44:56;;;;;;;9.50;7.70;;;;;;;1.09;85.30;96789.20;108185;1269;59674;-66
2021/12/28 05:47:25;;;;;;;8.90;6.40;;;;;;;1.10;85.33;96793.27;108083;1269;70893;-66
2021/12/28 05:49:54;;;;;;;8.70;7.20;;;;;;;1.12;85.31;96793.88;108324;1268;68725;-66
2021/12/28 05:52:24;;;;;;;8.70;6.90;;;;;;;1.13;85.28;96795.02;107936;1269;69836;-65
2021/12/28 05:54:53;;;;;;;14.50;10.10;;;;;;;1.14;85.27;96800.78;108134;1269;59695;-65
2021/12/28 05:57:24;;;;;;;11.90;9.10;;;;;;;1.12;85.26;96801.74;108105;1269;59682;-65
2021/12/28 05:59:53;;;;;;;10.60;7.70;;;;;;;1.11;85.11;96806.94;108159;1270;72085;-65
2021/12/28 06:02:23;;;;;;;17.80;10.20;;;;;;;1.11;85.28;96814.14;108081;1271;67471;-65
2021/12/28 06:04:52;;;;;;;21.30;13.20;;;;;;;1.05;85.78;96821.30;108181;1269;70195;-66
2021/12/28 06:07:27;;;;;;;25.30;15.80;;;;;;;0.93;86.43;96819.92;108218;1271;59707;-66
2021/12/28 06:09:57;;;;;;;28.00;16.40;;;;;;;0.84;86.84;96825.46;108367;1271;59678;-66
2021/12/28 06:12:26;;;;;;;31.60;17.00;;;;;;;0.77;87.27;96828.87;108253;1269;70584;-67
2021/12/28 06:14:55;;;;;;;37.20;19.90;;;;;;;0.69;87.53;96831.23;108289;1269;67849;-68
2021/12/28 06:17:24;;;;;;;36.30;20.00;;;;;;;0.64;87.75;96836.80;108298;1269;67869;-68
2021/12/28 06:19:53;;;;;;;37.30;19.70;;;;;;;0.59;88.13;96843.16;108321;1269;59832;-67
2021/12/28 06:22:22;;;;;;;37.20;19.60;;;;;;;0.55;88.43;96846.80;108295;1269;59665;-67
2021/12/28 06:24:52;;;;;;;37.30;20.50;;;;;;;0.54;88.17;96849.22;108216;1269;70921;-66
2021/12/28 06:27:21;;;;;;;31.70;17.80;;;;;;;0.52;88.40;96851.20;108242;1269;68504;-67
2021/12/28 06:29:50;;;;;;;33.20;18.60;;;;;;;0.53;88.39;96847.73;108241;1271;68664;-67
2021/12/28 06:32:19;;;;;;;32.80;18.30;;;;;;;0.53;88.42;96850.27;108216;1271;59755;-66
2021/12/28 06:34:48;;;;;;;31.50;16.50;;;;;;;0.56;88.27;96849.48;108344;1271;59767;-67
2021/12/28 06:37:17;;;;;;;21.80;11.40;;;;;;;0.59;87.93;96856.52;108297;1269;71728;-66
2021/12/28 06:39:46;;;;;;;19.40;10.20;;;;;;;0.65;87.65;96859.37;108359;1268;68807;-67
2021/12/28 06:42:15;;;;;;;17.50;9.70;;;;;;;0.70;87.41;96863.09;108195;1268;68891;-66
2021/12/28 06:44:47;;;;;;;25.10;15.90;;;;;;;0.75;87.38;96864.27;108288;1268;59765;-66
2021/12/28 06:47:16;;;;;;;30.50;17.80;;;;;;;0.73;87.45;96865.18;108135;1268;59690;-66
2021/12/28 06:49:45;;;;;;;23.30;13.50;;;;;;;0.70;87.30;96867.39;108209;1269;70786;-67
2021/12/28 06:52:15;;;;;;;22.80;13.80;;;;;;;0.70;87.06;96868.92;108210;1271;68719;-67
2021/12/28 06:54:44;;;;;;;27.00;16.60;;;;;;;0.71;86.90;96871.31;108172;1269;69482;-66
2021/12/28 06:57:13;;;;;;;23.30;14.90;;;;;;;0.67;87.25;96874.23;108211;1271;59688;-67
2021/12/28 06:59:44;;;;;;;25.70;16.40;;;;;;;0.67;87.44;96875.79;108246;1271;60129;-68
2021/12/28 07:02:15;;;;;;;27.40;16.50;;;;;;;0.66;87.56;96879.09;108163;1269;71409;-66
2021/12/28 07:04:45;;;;;;;19.40;11.60;;;;;;;0.67;87.50;96882.64;108229;1269;68059;-67
2021/12/28 07:07:14;;;;;;;23.80;14.90;;;;;;;0.70;87.16;96884.73;108185;1271;69542;-67
2021/12/28 07:09:44;;;;;;;19.50;12.00;;;;;;;0.72;87.23;96886.70;108163;1271;59709;-67
2021/12/28 07:12:14;;;;;;;23.70;15.80;;;;;;;0.74;87.14;96893.98;108182;1272;60294;-66
2021/12/28 07:14:43;;;;;;;16.40;11.20;;;;;;;0.74;87.15;96898.61;108386;1271;71624;-67
2021/12/28 07:17:12;;;;;;;19.20;12.60;;;;;;;0.77;86.78;96904.50;108371;1269;68151;-67
2021/12/28 07:19:41;;;;;;;18.20;12.00;;;;;;;0.76;86.82;96904.70;108373;1271;69449;-67
2021/12/28 07:22:10;;;;;;;22.30;14.20;;;;;;;0.74;87.13;96906.14;108327;1271;59766;-66
2021/12/28 07:24:39;;;;;;;22.00;13.90;;;;;;;0.73;87.37;96907.92;108124;1270;59668;-66
2021/12/28 07:27:09;;;;;;;19.70;12.70;;;;;;;0.71;87.51;96910.59;108118;1271;70188;-66
2021/12/28 07:29:38;;;;;;;16.30;11.80;;;;;;;0.71;87.59;96912.10;108357;1271;67678;-68
2021/12/28 07:32:08;;;;;;;20.50;14.70;;;;;;;0.74;87.54;96913.37;108273;1269;68472;-67
2021/12/28 07:34:37;;;;;;;;;;;;;;;0.74;86.85;96914.04;108177;1271;59604;-66
2021/12/28 07:37:06;;;;;;;19.30;12.00;;;;;;;0.76;86.69;96914.63;108405;1269;59700;-65
2021/12/28 07:39:35;;;;;;;15.00;9.10;;;;;;;0.77;86.44;96914.29;108072;1271;70914;-65
2021/12/28 07:42:05;;;;;;;14.10;9.40;;;;;;;0.81;86.30;96915.14;107907;1271;67902;-67
2021/12/28 07:44:36;;;;;;;12.50;8.60;;;;;;;0.85;86.21;96918.92;108185;1271;68705;-66
2021/12/28 07:47:05;;;;;;;12.20;8.00;;;;;;;0.89;86.19;96918.90;108090;1269;59653;-66
2021/12/28 07:49:34;;;;;;;14.30;9.80;;;;;;;0.94;86.08;96919.91;108202;1269;60090;-68
2021/12/28 07:52:04;;;;;;;11.30;8.20;;;;;;;0.96;86.04;96917.56;108356;1269;72220;-67
2021/12/28 07:54:33;;;;;;;10.80;7.10;;;;;;;0.98;86.01;96921.45;108104;1271;69511;-66
2021/12/28 07:57:03;;;;;;;12.40;8.60;;;;;;;1.01;86.00;96925.79;108111;1271;68849;-66
2021/12/28 07:59:33;;;;;;;10.20;7.20;;;;;;;1.04;85.76;96926.20;108097;1269;60175;-66
2021/12/28 08:02:02;;;;;;;12.20;9.10;;;;;;;1.06;85.57;96927.81;108119;1271;59656;-67
2021/12/28 08:04:32;;;;;;;11.40;8.50;;;;;;;1.07;85.45;96923.80;108157;1269;71328;-66
2021/12/28 08:07:01;;;;;;;12.30;7.80;;;;;;;1.11;85.38;96921.78;108186;1270;67947;-66
2021/12/28 08:09:30;;;;;;;11.00;7.50;;;;;;;1.14;85.27;96920.24;108083;1271;69502;-66
2021/12/28 08:11:59;;;;;;;14.10;8.50;;;;;;;1.17;85.29;96919.94;108286;1269;59777;-66
2021/12/28 08:14:28;;;;;;;12.10;8.90;;;;;;;1.21;85.31;96920.29;108025;1271;59647;-67
2021/12/28 08:16:58;;;;;;;15.10;9.90;;;;;;;1.23;84.49;96922.40;108200;1269;70837;-66
2021/12/28 08:19:27;;;;;;;13.30;9.50;;;;;;;1.20;83.81;96923.27;108214;1271;68756;-66
2021/12/28 08:21:57;;;;;;;13.10;9.20;;;;;;;1.16;84.21;96923.45;108161;1271;68718;-66
2021/12/28 08:24:26;;;;;;;12.00;8.80;;;;;;;1.16;84.74;96916.90;108174;1269;59665;-66
2021/12/28 08:26:55;;;;;;;13.70;10.20;;;;;;;1.23;84.96;96920.56;108218;1271;59774;-68
2021/12/28 08:29:25;;;;;;;14.10;10.00;;;;;;;1.31;84.83;96922.28;108341;1269;71500;-67
2021/12/28 08:31:54;;;;;;;9.00;6.40;;;;;;;1.39;84.84;96924.17;108343;1270;68609;-66
2021/12/28 08:34:23;;;;;;;11.90;8.30;;;;;;;1.43;84.25;96924.33;108232;1271;69350;-66
2021/12/28 08:36:52;;;;;;;13.00;8.80;;;;;;;1.46;84.34;96929.16;108292;1271;59767;-66
2021/12/28 08:39:21;;;;;;;14.80;10.10;;;;;;;1.51;84.44;96925.68;108223;1271;59697;-66
2021/12/28 08:41:50;;;;;;;11.60;7.50;;;;;;;1.57;84.42;96927.67;108064;1271;71419;-66
2021/12/28 08:44:18;;;;;;;12.30;7.40;;;;;;;1.62;84.30;96925.89;108288;1270;68649;-66
2021/12/28 08:46:47;;;;;;;13.30;8.30;;;;;;;1.67;84.36;96923.41;108303;1271;69481;-67
2021/12/28 08:49:17;;;;;;;10.40;6.50;;;;;;;1.76;84.41;96926.30;108241;1271;59690;-67
2021/12/28 08:51:46;;;;;;;12.60;7.80;;;;;;;1.86;84.14;96921.73;108169;1270;59658;-68
2021/12/28 08:54:15;;;;;;;17.90;10.30;;;;;;;1.98;84.06;96922.48;108065;1271;70915;-74
2021/12/28 08:56:45;;;;;;;11.50;6.80;;;;;;;2.14;83.93;96920.40;108041;1271;69331;-68
2021/12/28 08:59:14;;;;;;;;;;;;;;;2.32;83.67;96917.34;108120;1271;68719;-67
2021/12/28 09:01:44;;;;;;;11.40;7.10;;;;;;;2.49;82.82;96913.58;104303;1271;5092870;-66
2021/12/28 09:04:13;;;;;;;15.10;9.70;;;;;;;2.67;83.02;96916.67;108029;1271;72421;-66
2021/12/28 09:06:42;;;;;;;17.30;10.40;;;;;;;2.83;81.23;96914.16;108044;1271;67743;-66
2021/12/28 09:09:11;;;;;;;13.20;9.80;;;;;;;2.96;80.34;96913.86;107922;1270;69424;-66
2021/12/28 09:11:42;;;;;;;12.40;9.30;;;;;;;3.06;79.39;96908.33;107946;1271;59748;-66
2021/12/28 09:14:12;;;;;;;10.40;7.20;;;;;;;3.18;78.35;96898.26;107933;1271;59771;-66
2021/12/28 09:16:41;;;;;;;9.60;7.80;;;;;;;3.37;79.39;96899.17;107936;1271;71784;-66
2021/12/28 09:19:11;;;;;;;8.00;6.50;;;;;;;3.62;77.20;96894.09;107936;1271;68086;-66
2021/12/28 09:21:40;;;;;;;7.10;6.40;;;;;;;3.72;75.29;96884.92;107963;1271;68093;-67
2021/12/28 09:24:09;;;;;;;6.70;6.00;;;;;;;4.02;75.09;96879.30;108127;1271;59750;-68
2021/12/28 09:26:58;;;;;;;8.00;6.70;;;;;;;4.92;72.10;96873.85;108077;1271;59752;-66
2021/12/28 09:29:29;;;;;;;9.40;6.60;;;;;;;5.43;70.08;96870.63;108040;1270;71086;-66
2021/12/28 09:32:00;;;;;;;6.70;5.90;;;;;;;5.73;68.04;96871.73;108110;1271;67608;-67
2021/12/28 09:34:29;;;;;;;6.70;5.40;;;;;;;6.00;71.01;96870.05;108058;1271;68824;-67
2021/12/28 09:36:58;;;;;;;9.80;5.90;;;;;;;6.20;70.65;96868.64;108076;1271;59815;-67
2021/12/28 09:39:28;;;;;;;7.10;5.50;;;;;;;6.17;68.94;96870.77;108127;1271;59727;-67
2021/12/28 09:42:01;;;;;;;8.10;6.50;;;;;;;5.98;69.23;96873.80;108101;1272;71728;-66
2021/12/28 09:44:32;;;;;;;7.30;5.70;;;;;;;5.79;70.59;96870.85;108099;1271;69194;-66
2021/12/28 09:47:03;;;;;;;7.50;6.10;;;;;;;5.59;70.96;96866.36;108075;1270;69450;-66
2021/12/28 09:49:33;;;;;;;8.30;6.90;;;;;;;5.35;71.06;96872.83;108159;1270;59685;-67
2021/12/28 09:52:05;;;;;;;9.60;7.30;;;;;;;5.12;71.36;96872.68;108177;1271;59743;-67
2021/12/28 09:54:34;;;;;;;9.50;7.70;;;;;;;4.92;71.22;96873.88;108137;1271;71783;-69
2021/12/28 09:57:04;;;;;;;8.20;6.70;;;;;;;4.73;71.28;96874.46;108056;1271;68555;-68
2021/12/28 09:59:33;;;;;;;8.40;7.60;;;;;;;4.48;70.31;96872.58;108043;1271;69939;-67
2021/12/28 10:02:09;;;;;;;6.90;5.70;;;;;;;4.15;71.03;96872.73;108060;1271;59707;-67
2021/12/28 10:04:56;;;;;;;8.10;6.40;;;;;;;3.85;72.41;96873.55;108072;1271;59688;-68
2021/12/28 10:07:32;;;;;;;8.30;6.70;;;;;;;3.68;73.50;96875.16;108098;1271;71602;-68
2021/12/28 10:10:04;;;;;;;13.20;8.50;;;;;;;3.62;74.03;96872.70;108255;1271;68520;-68
2021/12/28 10:12:40;;;;;;;10.70;8.30;;;;;;;3.60;74.50;96868.70;108024;1274;68669;-69
2021/12/28 10:15:18;;;;;;;9.50;7.40;;;;;;;3.59;74.75;96866.81;108069;1274;59776;-66
2021/12/28 10:17:49;;;;;;;8.10;7.20;;;;;;;3.54;74.62;96863.65;108192;1269;59699;-67
2021/12/28 10:20:28;;;;;;;6.50;5.80;;;;;;;3.41;74.60;96863.64;108260;1269;71190;-66
2021/12/28 10:23:02;;;;;;;7.70;6.40;;;;;;;3.32;75.17;96866.02;107973;1270;68718;-66
2021/12/28 10:25:35;;;;;;;8.10;6.50;;;;;;;3.27;75.11;96864.88;108063;1271;68750;-66
2021/12/28 10:28:10;;;;;;;14.80;9.50;;;;;;;3.26;75.76;96865.95;108045;1271;59687;-67
2021/12/28 10:30:42;;;;;;;10.50;7.80;;;;;;;3.33;75.88;96862.71;108076;1271;59777;-66
2021/12/28 10:33:15;;;;;;;8.40;7.10;;;;;;;3.34;75.73;96865.73;108183;1269;72254;-66
2021/12/28 10:35:48;;;;;;;7.40;6.60;;;;;;;3.37;75.80;96857.83;108426;1273;67748;-66
2021/12/28 10:38:29;;;;;;;9.10;8.00;;;;;;;3.38;75.00;96857.10;108332;1269;69464;-67
2021/12/28 10:41:10;;;;;;;19.40;13.00;;;;;;;3.34;75.36;96853.35;108307;1271;59763;-67
2021/12/28 10:43:45;;;;;;;27.00;15.60;;;;;;;3.32;75.78;96850.66;108053;1271;59734;-66
2021/12/28 10:46:18;;;;;;;15.90;9.50;;;;;;;3.33;75.99;96846.34;108356;1269;71596;-68
2021/12/28 10:48:51;;;;;;;15.90;10.40;;;;;;;3.35;76.44;96846.73;108392;1269;67981;-66
2021/12/28 10:51:25;;;;;;;19.10;10.80;;;;;;;3.36;75.95;96844.79;108300;1271;70200;-66
2021/12/28 10:54:12;;;;;;;11.90;9.10;;;;;;;3.35;76.05;96847.44;108299;1271;59701;-66
2021/12/28 10:56:47;;;;;;;10.80;7.30;;;;;;;3.32;76.16;96852.74;108291;1271;59693;-66
2021/12/28 10:59:22;;;;;;;8.80;6.90;;;;;;;3.30;76.13;96856.63;108082;1271;72271;-66
2021/12/28 11:01:52;;;;;;;7.70;5.80;;;;;;;3.31;76.30;96850.58;107983;1271;68747;-66
2021/12/28 11:04:35;;;;;;;10.30;9.20;;;;;;;3.28;75.92;96852.77;107978;1271;69838;-66
2021/12/28 11:07:07;;;;;;;9.40;8.20;;;;;;;3.18;75.96;96852.81;107962;1270;59721;-66
2021/12/28 11:09:47;;;;;;;10.20;9.10;;;;;;;3.16;75.93;96851.55;108115;1271;59703;-67
2021/12/28 11:12:16;;;;;;;;;;;;;;;3.13;76.11;96850.31;108287;1271;72349;-66
2021/12/28 11:14:44;;;;;;;10.50;8.90;;;;;;;3.09;76.53;96853.77;108005;1270;69242;-66
2021/12/28 11:17:13;;;;;;;13.40;9.60;;;;;;;3.02;76.19;96858.09;108148;1271;69971;-66
2021/12/28 11:19:43;;;;;;;8.80;6.60;;;;;;;2.92;76.43;96862.73;108294;1270;59712;-66
2021/12/28 11:22:13;;;;;;;10.00;8.40;;;;;;;2.92;76.78;96856.06;108286;1271;59769;-66
2021/12/28 11:24:45;;;;;;;9.20;6.50;;;;;;;2.90;76.90;96862.66;108189;1271;70582;-66
2021/12/28 11:27:22;;;;;;;7.40;6.60;;;;;;;2.90;76.93;96868.34;108154;1271;68780;-66
2021/12/28 11:30:12;;;;;;;7.30;6.30;;;;;;;2.92;76.99;96860.16;108045;1271;70055;-66
2021/12/28 11:32:40;;;;;;;7.50;6.10;;;;;;;2.94;77.02;96858.70;108095;1271;59644;-66
2021/12/28 11:35:09;;;;;;;8.90;7.30;;;;;;;2.95;77.10;96856.54;108045;1271;59649;-66
2021/12/28 11:37:38;;;;;;;7.90;5.40;;;;;;;2.95;77.01;96853.83;108144;1271;72234;-65
2021/12/28 11:40:10;;;;;;;9.10;7.70;;;;;;;2.95;77.23;96853.64;108036;1271;69205;-65
2021/12/28 11:42:39;;;;;;;6.60;5.40;;;;;;;2.94;77.25;96853.86;108143;1271;70007;-65
2021/12/28 11:45:09;;;;;;;9.70;7.60;;;;;;;2.94;77.20;96856.94;107992;1271;59694;-66
2021/12/28 11:47:42;;;;;;;10.10;8.10;;;;;;;2.93;77.18;96856.48;108023;1271;59686;-65
2021/12/28 11:50:11;;;;;;;11.20;8.60;;;;;;;2.93;77.26;96853.58;108394;1271;71660;-66